sensor_id;sensor_type;location;lat;lon;timestamp;pressure;altitude;pressure_sealevel;temperature;humidity
68376;BME280;55318;52.068;5.188;2023-02-24T00:01:00;101695.0;;;2.85;91.54
68376;BME280;55318;52.068;5.188;2023-02-24T00:02:36;101692.0;;;2.72;91.5
68376;BME280;55318;52.068;5.188;2023-02-24T00:04:12;101693.0;;;2.75;91.27
68376;BME280;55318;52.068;5.188;2023-02-24T00:05:49;101690.0;;;2.8;91.19
68376;BME280;55318;52.068;5.188;2023-02-24T00:09:01;101687.0;;;2.7;91.33
68376;BME280;55318;52.068;5.188;2023-02-24T00:10:38;101684.0;;;2.72;91.6
68376;BME280;55318;52.068;5.188;2023-02-24T00:12:15;101680.0;;;2.7;91.73
68376;BME280;55318;52.068;5.188;2023-02-24T00:15:27;101682.0;;;2.67;91.88
68376;BME280;55318;52.068;5.188;2023-02-24T00:17:04;101677.0;;;2.66;91.93
68376;BME280;55318;52.068;5.188;2023-02-24T00:18:41;101675.0;;;2.59;92.08
68376;BME280;55318;52.068;5.188;2023-02-24T00:20:19;101672.0;;;2.6;92.67
68376;BME280;55318;52.068;5.188;2023-02-24T00:23:33;101668.0;;;2.52;92.15
68376;BME280;55318;52.068;5.188;2023-02-24T00:25:09;101660.0;;;2.54;92.59
68376;BME280;55318;52.068;5.188;2023-02-24T00:26:50;101659.0;;;2.44;92.23
68376;BME280;55318;52.068;5.188;2023-02-24T00:30:06;101656.0;;;2.34;92.33
68376;BME280;55318;52.068;5.188;2023-02-24T00:31:43;101650.0;;;2.35;92.61
68376;BME280;55318;52.068;5.188;2023-02-24T00:33:19;101651.0;;;2.33;92.63
68376;BME280;55318;52.068;5.188;2023-02-24T00:34:55;101647.0;;;2.44;92.53
68376;BME280;55318;52.068;5.188;2023-02-24T00:38:08;101648.0;;;2.37;92.51
68376;BME280;55318;52.068;5.188;2023-02-24T00:39:45;101649.0;;;2.37;92.58
68376;BME280;55318;52.068;5.188;2023-02-24T00:41:22;101646.0;;;2.48;92.56
68376;BME280;55318;52.068;5.188;2023-02-24T00:44:38;101643.0;;;2.48;92.73
68376;BME280;55318;52.068;5.188;2023-02-24T00:46:16;101645.0;;;2.32;92.65
68376;BME280;55318;52.068;5.188;2023-02-24T00:47:53;101640.0;;;2.27;92.71
68376;BME280;55318;52.068;5.188;2023-02-24T00:51:08;101633.0;;;2.38;92.62
68376;BME280;55318;52.068;5.188;2023-02-24T00:52:47;101636.0;;;2.29;92.85
68376;BME280;55318;52.068;5.188;2023-02-24T00:54:24;101628.0;;;2.33;92.76
68376;BME280;55318;52.068;5.188;2023-02-24T00:56:01;101632.0;;;2.29;92.9
68376;BME280;55318;52.068;5.188;2023-02-24T00:59:14;101630.0;;;2.21;92.84
68376;BME280;55318;52.068;5.188;2023-02-24T01:00:52;101624.0;;;2.19;92.74
68376;BME280;55318;52.068;5.188;2023-02-24T01:02:28;101619.0;;;2.23;93.09
68376;BME280;55318;52.068;5.188;2023-02-24T01:05:42;101616.0;;;2.09;93.11
68376;BME280;55318;52.068;5.188;2023-02-24T01:07:18;101616.0;;;2.1;93.17
68376;BME280;55318;52.068;5.188;2023-02-24T01:08:56;101613.0;;;2.09;93.25
68376;BME280;55318;52.068;5.188;2023-02-24T01:10:33;101610.0;;;2.08;93.08
68376;BME280;55318;52.068;5.188;2023-02-24T01:13:48;101603.0;;;2.0;93.32
68376;BME280;55318;52.068;5.188;2023-02-24T01:15:24;101601.0;;;2.0;93.2
68376;BME280;55318;52.068;5.188;2023-02-24T01:17:01;101597.0;;;2.0;92.95
68376;BME280;55318;52.068;5.188;2023-02-24T01:18:39;101589.0;;;2.0;93.01
68376;BME280;55318;52.068;5.188;2023-02-24T01:21:52;101594.0;;;2.06;92.88
68376;BME280;55318;52.068;5.188;2023-02-24T01:23:29;101588.0;;;2.02;92.77
68376;BME280;55318;52.068;5.188;2023-02-24T01:25:05;101583.0;;;1.96;93.08
68376;BME280;55318;52.068;5.188;2023-02-24T01:28:19;101584.0;;;1.87;93.13
68376;BME280;55318;52.068;5.188;2023-02-24T01:29:55;101578.0;;;2.0;92.83
68376;BME280;55318;52.068;5.188;2023-02-24T01:31:31;101577.0;;;1.95;92.75
68376;BME280;55318;52.068;5.188;2023-02-24T01:34:44;101568.0;;;1.84;93.0
68376;BME280;55318;52.068;5.188;2023-02-24T01:36:22;101559.0;;;1.8;93.04
68376;BME280;55318;52.068;5.188;2023-02-24T01:38:00;101559.0;;;1.79;93.5
68376;BME280;55318;52.068;5.188;2023-02-24T01:39:36;101551.0;;;1.82;93.41
68376;BME280;55318;52.068;5.188;2023-02-24T01:42:52;101550.0;;;1.77;93.75
68376;BME280;55318;52.068;5.188;2023-02-24T01:45:33;101544.0;;;1.8;93.5
68376;BME280;55318;52.068;5.188;2023-02-24T01:47:10;101537.0;;;1.72;93.69
68376;BME280;55318;52.068;5.188;2023-02-24T01:48:47;101535.0;;;1.81;93.65
68376;BME280;55318;52.068;5.188;2023-02-24T01:50:24;101531.0;;;1.71;93.63
68376;BME280;55318;52.068;5.188;2023-02-24T01:52:06;101532.0;;;1.9;93.62
68376;BME280;55318;52.068;5.188;2023-02-24T01:55:24;101516.0;;;1.86;93.71
68376;BME280;55318;52.068;5.188;2023-02-24T01:57:04;101515.0;;;1.88;93.46
68376;BME280;55318;52.068;5.188;2023-02-24T01:58:42;101514.0;;;1.93;93.77
68376;BME280;55318;52.068;5.188;2023-02-24T02:01:57;101515.0;;;1.87;93.89
68376;BME280;55318;52.068;5.188;2023-02-24T02:03:39;101510.0;;;1.83;93.72
68376;BME280;55318;52.068;5.188;2023-02-24T02:05:16;101509.0;;;1.83;93.67
68376;BME280;55318;52.068;5.188;2023-02-24T02:06:53;101511.0;;;1.82;93.77
68376;BME280;55318;52.068;5.188;2023-02-24T02:10:10;101510.0;;;1.75;93.88
68376;BME280;55318;52.068;5.188;2023-02-24T02:11:48;101505.0;;;1.79;94.09
68376;BME280;55318;52.068;5.188;2023-02-24T02:13:25;101503.0;;;1.82;94.03
68376;BME280;55318;52.068;5.188;2023-02-24T02:15:04;101506.0;;;1.79;94.0
68376;BME280;55318;52.068;5.188;2023-02-24T02:18:46;101506.0;;;1.7;94.14
68376;BME280;55318;52.068;5.188;2023-02-24T02:20:44;101503.0;;;1.73;94.08
68376;BME280;55318;52.068;5.188;2023-02-24T02:22:48;101503.0;;;1.66;94.03
68376;BME280;55318;52.068;5.188;2023-02-24T02:25:19;101502.0;;;1.68;94.34
68376;BME280;55318;52.068;5.188;2023-02-24T02:27:19;101494.0;;;1.65;94.06
68376;BME280;55318;52.068;5.188;2023-02-24T02:30:17;101487.0;;;1.63;94.17
68376;BME280;55318;52.068;5.188;2023-02-24T02:33:40;101481.0;;;1.6;94.5
68376;BME280;55318;52.068;5.188;2023-02-24T02:36:31;101471.0;;;1.63;94.37
68376;BME280;55318;52.068;5.188;2023-02-24T02:38:14;101469.0;;;1.53;94.05
68376;BME280;55318;52.068;5.188;2023-02-24T02:41:49;101458.0;;;1.55;94.52
68376;BME280;55318;52.068;5.188;2023-02-24T02:43:31;101453.0;;;1.61;94.3
68376;BME280;55318;52.068;5.188;2023-02-24T02:45:17;101455.0;;;1.56;94.17
68376;BME280;55318;52.068;5.188;2023-02-24T02:47:03;101449.0;;;1.55;94.27
68376;BME280;55318;52.068;5.188;2023-02-24T02:48:46;101451.0;;;1.59;94.14
68376;BME280;55318;52.068;5.188;2023-02-24T02:52:13;101447.0;;;1.63;94.44
68376;BME280;55318;52.068;5.188;2023-02-24T02:53:59;101443.0;;;1.58;94.49
68376;BME280;55318;52.068;5.188;2023-02-24T02:55:39;101444.0;;;1.65;94.47
68376;BME280;55318;52.068;5.188;2023-02-24T02:57:22;101443.0;;;1.64;94.15
68376;BME280;55318;52.068;5.188;2023-02-24T02:59:01;101441.0;;;1.61;94.34
68376;BME280;55318;52.068;5.188;2023-02-24T03:02:22;101440.0;;;1.61;94.31
68376;BME280;55318;52.068;5.188;2023-02-24T03:04:03;101437.0;;;1.56;94.47
68376;BME280;55318;52.068;5.188;2023-02-24T03:05:45;101436.0;;;1.63;94.66
68376;BME280;55318;52.068;5.188;2023-02-24T03:07:28;101434.0;;;1.67;94.45
68376;BME280;55318;52.068;5.188;2023-02-24T03:10:50;101426.0;;;1.63;94.48
68376;BME280;55318;52.068;5.188;2023-02-24T03:12:29;101420.0;;;1.65;94.37
68376;BME280;55318;52.068;5.188;2023-02-24T03:14:09;101416.0;;;1.57;94.38
68376;BME280;55318;52.068;5.188;2023-02-24T03:15:51;101415.0;;;1.57;94.24
68376;BME280;55318;52.068;5.188;2023-02-24T03:19:15;101417.0;;;1.53;94.29
68376;BME280;55318;52.068;5.188;2023-02-24T03:20:57;101411.0;;;1.61;94.26
68376;BME280;55318;52.068;5.188;2023-02-24T03:22:40;101409.0;;;1.59;94.41
68376;BME280;55318;52.068;5.188;2023-02-24T03:24:20;101405.0;;;1.68;94.58
68376;BME280;55318;52.068;5.188;2023-02-24T03:27:45;101406.0;;;1.74;94.14
68376;BME280;55318;52.068;5.188;2023-02-24T03:29:28;101398.0;;;1.76;94.06
68376;BME280;55318;52.068;5.188;2023-02-24T03:31:13;101395.0;;;1.81;94.15
68376;BME280;55318;52.068;5.188;2023-02-24T03:32:56;101392.0;;;1.69;94.13
68376;BME280;55318;52.068;5.188;2023-02-24T03:34:44;101389.0;;;1.83;93.99
68376;BME280;55318;52.068;5.188;2023-02-24T03:38:01;101384.0;;;1.9;93.97
68376;BME280;55318;52.068;5.188;2023-02-24T03:39:38;101385.0;;;1.88;94.12
68376;BME280;55318;52.068;5.188;2023-02-24T03:41:16;101382.0;;;1.87;94.45
68376;BME280;55318;52.068;5.188;2023-02-24T03:42:56;101376.0;;;1.95;94.51
68376;BME280;55318;52.068;5.188;2023-02-24T03:46:13;101377.0;;;1.98;94.67
68376;BME280;55318;52.068;5.188;2023-02-24T03:47:50;101378.0;;;2.13;94.32
68376;BME280;55318;52.068;5.188;2023-02-24T03:49:26;101378.0;;;2.21;94.35
68376;BME280;55318;52.068;5.188;2023-02-24T03:52:43;101376.0;;;2.19;94.5
68376;BME280;55318;52.068;5.188;2023-02-24T03:54:40;101381.0;;;2.33;93.97
68376;BME280;55318;52.068;5.188;2023-02-24T03:56:28;101376.0;;;2.41;93.95
68376;BME280;55318;52.068;5.188;2023-02-24T03:58:17;101367.0;;;2.52;94.23
68376;BME280;55318;52.068;5.188;2023-02-24T04:00:06;101363.0;;;2.44;94.26
68376;BME280;55318;52.068;5.188;2023-02-24T04:01:50;101367.0;;;2.48;94.15
68376;BME280;55318;52.068;5.188;2023-02-24T04:05:18;101362.0;;;2.62;93.79
68376;BME280;55318;52.068;5.188;2023-02-24T04:06:57;101359.0;;;2.57;93.48
68376;BME280;55318;52.068;5.188;2023-02-24T04:08:41;101361.0;;;2.56;93.6
68376;BME280;55318;52.068;5.188;2023-02-24T04:10:23;101360.0;;;2.59;94.06
68376;BME280;55318;52.068;5.188;2023-02-24T04:13:48;101358.0;;;2.62;94.09
68376;BME280;55318;52.068;5.188;2023-02-24T04:15:31;101358.0;;;2.7;93.74
68376;BME280;55318;52.068;5.188;2023-02-24T04:18:57;101360.0;;;2.69;93.53
68376;BME280;55318;52.068;5.188;2023-02-24T04:20:35;101352.0;;;2.76;94.14
68376;BME280;55318;52.068;5.188;2023-02-24T04:23:56;101348.0;;;2.78;94.05
68376;BME280;55318;52.068;5.188;2023-02-24T04:25:35;101340.0;;;2.88;93.74
68376;BME280;55318;52.068;5.188;2023-02-24T04:27:14;101336.0;;;2.96;93.3
68376;BME280;55318;52.068;5.188;2023-02-24T04:30:32;101338.0;;;2.98;93.21
68376;BME280;55318;52.068;5.188;2023-02-24T04:32:12;101331.0;;;2.99;92.91
68376;BME280;55318;52.068;5.188;2023-02-24T04:33:51;101325.0;;;3.16;91.75
68376;BME280;55318;52.068;5.188;2023-02-24T04:35:27;101313.0;;;3.23;92.01
68376;BME280;55318;52.068;5.188;2023-02-24T04:38:39;101307.0;;;3.2;91.99
68376;BME280;55318;52.068;5.188;2023-02-24T04:40:17;101306.0;;;3.36;91.7
68376;BME280;55318;52.068;5.188;2023-02-24T04:41:55;101298.0;;;3.48;89.52
68376;BME280;55318;52.068;5.188;2023-02-24T04:43:31;101292.0;;;3.4;89.83
68376;BME280;55318;52.068;5.188;2023-02-24T04:46:45;101284.0;;;3.5;89.65
68376;BME280;55318;52.068;5.188;2023-02-24T04:48:21;101287.0;;;3.71;88.96
68376;BME280;55318;52.068;5.188;2023-02-24T04:49:57;101283.0;;;3.71;88.14
68376;BME280;55318;52.068;5.188;2023-02-24T04:53:12;101274.0;;;3.82;87.37
68376;BME280;55318;52.068;5.188;2023-02-24T04:54:49;101272.0;;;3.86;86.66
68376;BME280;55318;52.068;5.188;2023-02-24T04:56:25;101273.0;;;3.81;87.3
68376;BME280;55318;52.068;5.188;2023-02-24T04:59:38;101277.0;;;3.8;86.69
68376;BME280;55318;52.068;5.188;2023-02-24T05:01:14;101280.0;;;3.77;87.25
68376;BME280;55318;52.068;5.188;2023-02-24T05:02:52;101282.0;;;3.69;87.36
68376;BME280;55318;52.068;5.188;2023-02-24T05:04:34;101274.0;;;3.63;87.3
68376;BME280;55318;52.068;5.188;2023-02-24T05:07:50;101272.0;;;3.71;86.54
68376;BME280;55318;52.068;5.188;2023-02-24T05:09:26;101267.0;;;3.85;86.24
68376;BME280;55318;52.068;5.188;2023-02-24T05:11:02;101260.0;;;3.85;86.28
68376;BME280;55318;52.068;5.188;2023-02-24T05:14:17;101255.0;;;3.81;85.67
68376;BME280;55318;52.068;5.188;2023-02-24T05:15:56;101256.0;;;3.92;85.04
68376;BME280;55318;52.068;5.188;2023-02-24T05:17:33;101250.0;;;3.83;85.42
68376;BME280;55318;52.068;5.188;2023-02-24T05:19:10;101247.0;;;3.94;85.41
68376;BME280;55318;52.068;5.188;2023-02-24T05:22:28;101241.0;;;4.0;85.49
68376;BME280;55318;52.068;5.188;2023-02-24T05:24:04;101239.0;;;4.09;84.76
68376;BME280;55318;52.068;5.188;2023-02-24T05:25:40;101237.0;;;4.07;84.67
68376;BME280;55318;52.068;5.188;2023-02-24T05:28:54;101231.0;;;4.18;83.98
68376;BME280;55318;52.068;5.188;2023-02-24T05:30:31;101232.0;;;4.3;83.17
68376;BME280;55318;52.068;5.188;2023-02-24T05:32:08;101223.0;;;4.34;82.93
68376;BME280;55318;52.068;5.188;2023-02-24T05:33:47;101220.0;;;4.45;82.19
68376;BME280;55318;52.068;5.188;2023-02-24T05:37:01;101219.0;;;4.39;82.48
68376;BME280;55318;52.068;5.188;2023-02-24T05:38:38;101210.0;;;4.49;81.55
68376;BME280;55318;52.068;5.188;2023-02-24T05:40:14;101205.0;;;4.41;81.52
68376;BME280;55318;52.068;5.188;2023-02-24T05:43:28;101203.0;;;4.64;80.72
68376;BME280;55318;52.068;5.188;2023-02-24T05:45:07;101195.0;;;4.57;80.73
68376;BME280;55318;52.068;5.188;2023-02-24T05:46:45;101191.0;;;4.49;81.16
68376;BME280;55318;52.068;5.188;2023-02-24T05:49:56;101189.0;;;4.51;81.3
68376;BME280;55318;52.068;5.188;2023-02-24T05:51:32;101183.0;;;4.67;80.78
68376;BME280;55318;52.068;5.188;2023-02-24T05:53:09;101173.0;;;4.68;80.75
68376;BME280;55318;52.068;5.188;2023-02-24T05:54:45;101166.0;;;4.64;81.2
68376;BME280;55318;52.068;5.188;2023-02-24T05:57:58;101165.0;;;4.7;81.61
68376;BME280;55318;52.068;5.188;2023-02-24T05:59:34;101168.0;;;4.68;81.39
68376;BME280;55318;52.068;5.188;2023-02-24T06:01:10;101163.0;;;4.78;80.86
68376;BME280;55318;52.068;5.188;2023-02-24T06:04:23;101156.0;;;4.79;80.5
68376;BME280;55318;52.068;5.188;2023-02-24T06:06:00;101155.0;;;4.84;79.89
68376;BME280;55318;52.068;5.188;2023-02-24T06:07:36;101157.0;;;4.88;79.41
68376;BME280;55318;52.068;5.188;2023-02-24T06:10:48;101155.0;;;4.88;80.39
68376;BME280;55318;52.068;5.188;2023-02-24T06:12:27;101146.0;;;4.82;80.97
68376;BME280;55318;52.068;5.188;2023-02-24T06:14:04;101142.0;;;4.99;79.74
68376;BME280;55318;52.068;5.188;2023-02-24T06:15:40;101144.0;;;5.0;79.8
68376;BME280;55318;52.068;5.188;2023-02-24T06:18:53;101142.0;;;5.03;79.05
68376;BME280;55318;52.068;5.188;2023-02-24T06:20:29;101141.0;;;5.0;79.28
68376;BME280;55318;52.068;5.188;2023-02-24T06:22:06;101140.0;;;5.04;79.3
68376;BME280;55318;52.068;5.188;2023-02-24T06:25:19;101132.0;;;5.03;79.47
68376;BME280;55318;52.068;5.188;2023-02-24T06:26:56;101133.0;;;5.0;79.37
68376;BME280;55318;52.068;5.188;2023-02-24T06:28:32;101132.0;;;5.11;78.88
68376;BME280;55318;52.068;5.188;2023-02-24T06:31:46;101130.0;;;5.19;78.69
68376;BME280;55318;52.068;5.188;2023-02-24T06:33:22;101124.0;;;5.23;78.12
68376;BME280;55318;52.068;5.188;2023-02-24T06:34:58;101128.0;;;5.29;77.91
68376;BME280;55318;52.068;5.188;2023-02-24T06:36:35;101122.0;;;5.39;78.0
68376;BME280;55318;52.068;5.188;2023-02-24T06:39:48;101114.0;;;5.46;78.11
68376;BME280;55318;52.068;5.188;2023-02-24T06:41:24;101111.0;;;5.45;78.08
68376;BME280;55318;52.068;5.188;2023-02-24T06:43:00;101110.0;;;5.4;77.91
68376;BME280;55318;52.068;5.188;2023-02-24T06:46:15;101111.0;;;5.44;78.09
68376;BME280;55318;52.068;5.188;2023-02-24T06:47:51;101112.0;;;5.36;78.33
68376;BME280;55318;52.068;5.188;2023-02-24T06:49:28;101107.0;;;5.48;78.3
68376;BME280;55318;52.068;5.188;2023-02-24T06:52:49;101099.0;;;5.56;78.19
68376;BME280;55318;52.068;5.188;2023-02-24T06:54:26;101088.0;;;5.42;78.14
68376;BME280;55318;52.068;5.188;2023-02-24T06:56:04;101088.0;;;5.42;77.92
68376;BME280;55318;52.068;5.188;2023-02-24T06:57:41;101094.0;;;5.48;78.25
68376;BME280;55318;52.068;5.188;2023-02-24T07:00:53;101095.0;;;5.62;77.95
68376;BME280;55318;52.068;5.188;2023-02-24T07:02:30;101091.0;;;5.7;77.81
68376;BME280;55318;52.068;5.188;2023-02-24T07:04:06;101089.0;;;5.6;77.87
68376;BME280;55318;52.068;5.188;2023-02-24T07:07:21;101083.0;;;5.57;77.94
68376;BME280;55318;52.068;5.188;2023-02-24T07:08:57;101087.0;;;5.67;77.91
68376;BME280;55318;52.068;5.188;2023-02-24T07:10:34;101084.0;;;5.64;78.19
68376;BME280;55318;52.068;5.188;2023-02-24T07:12:10;101083.0;;;5.65;77.8
68376;BME280;55318;52.068;5.188;2023-02-24T07:15:23;101070.0;;;5.79;77.84
68376;BME280;55318;52.068;5.188;2023-02-24T07:17:00;101062.0;;;5.7;77.94
68376;BME280;55318;52.068;5.188;2023-02-24T07:18:37;101058.0;;;5.76;77.75
68376;BME280;55318;52.068;5.188;2023-02-24T07:21:54;101055.0;;;5.74;77.94
68376;BME280;55318;52.068;5.188;2023-02-24T07:23:31;101065.0;;;5.79;78.24
68376;BME280;55318;52.068;5.188;2023-02-24T07:25:07;101068.0;;;5.83;77.91
68376;BME280;55318;52.068;5.188;2023-02-24T07:26:43;101061.0;;;5.72;78.13
68376;BME280;55318;52.068;5.188;2023-02-24T07:29:55;101064.0;;;5.88;78.2
68376;BME280;55318;52.068;5.188;2023-02-24T07:31:31;101064.0;;;5.88;78.19
68376;BME280;55318;52.068;5.188;2023-02-24T07:33:07;101055.0;;;5.8;78.49
68376;BME280;55318;52.068;5.188;2023-02-24T07:36:19;101051.0;;;5.96;78.48
68376;BME280;55318;52.068;5.188;2023-02-24T07:37:56;101050.0;;;6.04;78.34
68376;BME280;55318;52.068;5.188;2023-02-24T07:39:33;101046.0;;;5.83;78.61
68376;BME280;55318;52.068;5.188;2023-02-24T07:42:48;101044.0;;;5.76;79.33
68376;BME280;55318;52.068;5.188;2023-02-24T07:44:24;101045.0;;;5.96;79.17
68376;BME280;55318;52.068;5.188;2023-02-24T07:46:06;101037.0;;;6.1;78.77
68376;BME280;55318;52.068;5.188;2023-02-24T07:47:42;101036.0;;;6.14;78.59
68376;BME280;55318;52.068;5.188;2023-02-24T07:50:57;101031.0;;;6.06;79.14
68376;BME280;55318;52.068;5.188;2023-02-24T07:52:33;101028.0;;;6.24;78.97
68376;BME280;55318;52.068;5.188;2023-02-24T07:54:10;101024.0;;;6.17;79.05
68376;BME280;55318;52.068;5.188;2023-02-24T07:57:22;101015.0;;;6.35;78.69
68376;BME280;55318;52.068;5.188;2023-02-24T07:58:59;101018.0;;;6.27;78.81
68376;BME280;55318;52.068;5.188;2023-02-24T08:00:37;101022.0;;;6.38;79.11
68376;BME280;55318;52.068;5.188;2023-02-24T08:03:52;101018.0;;;6.42;79.05
68376;BME280;55318;52.068;5.188;2023-02-24T08:05:28;101013.0;;;6.37;79.09
68376;BME280;55318;52.068;5.188;2023-02-24T08:07:04;101012.0;;;6.51;79.11
68376;BME280;55318;52.068;5.188;2023-02-24T08:08:41;101017.0;;;6.35;79.72
68376;BME280;55318;52.068;5.188;2023-02-24T08:11:55;101015.0;;;6.1;79.78
68376;BME280;55318;52.068;5.188;2023-02-24T08:13:31;101017.0;;;6.32;80.56
68376;BME280;55318;52.068;5.188;2023-02-24T08:15:09;101014.0;;;6.49;80.41
68376;BME280;55318;52.068;5.188;2023-02-24T08:18:25;101017.0;;;6.3;80.11
68376;BME280;55318;52.068;5.188;2023-02-24T08:20:01;101009.0;;;6.42;80.33
68376;BME280;55318;52.068;5.188;2023-02-24T08:21:38;101007.0;;;6.49;80.33
68376;BME280;55318;52.068;5.188;2023-02-24T08:23:14;101005.0;;;6.6;80.19
68376;BME280;55318;52.068;5.188;2023-02-24T08:26:30;101005.0;;;6.64;80.63
68376;BME280;55318;52.068;5.188;2023-02-24T08:28:07;101005.0;;;6.62;80.81
68376;BME280;55318;52.068;5.188;2023-02-24T08:29:46;101002.0;;;6.6;80.89
68376;BME280;55318;52.068;5.188;2023-02-24T08:33:00;100990.0;;;6.52;81.34
68376;BME280;55318;52.068;5.188;2023-02-24T08:34:36;100985.0;;;6.45;81.86
68376;BME280;55318;52.068;5.188;2023-02-24T08:36:15;100982.0;;;6.37;82.44
68376;BME280;55318;52.068;5.188;2023-02-24T08:37:53;100970.0;;;6.6;82.33
68376;BME280;55318;52.068;5.188;2023-02-24T08:41:11;100965.0;;;6.46;83.31
68376;BME280;55318;52.068;5.188;2023-02-24T08:42:48;100965.0;;;6.42;83.77
68376;BME280;55318;52.068;5.188;2023-02-24T08:44:24;100959.0;;;6.45;84.08
68376;BME280;55318;52.068;5.188;2023-02-24T08:47:48;100956.0;;;6.54;83.87
68376;BME280;55318;52.068;5.188;2023-02-24T08:49:25;100960.0;;;6.76;83.52
68376;BME280;55318;52.068;5.188;2023-02-24T08:51:03;100965.0;;;6.72;84.12
68376;BME280;55318;52.068;5.188;2023-02-24T08:52:41;100965.0;;;6.73;84.04
68376;BME280;55318;52.068;5.188;2023-02-24T08:55:59;100964.0;;;6.78;84.57
68376;BME280;55318;52.068;5.188;2023-02-24T08:57:35;100969.0;;;6.71;85.2
68376;BME280;55318;52.068;5.188;2023-02-24T08:59:12;100965.0;;;6.83;84.57
68376;BME280;55318;52.068;5.188;2023-02-24T09:00:49;100961.0;;;6.58;84.82
68376;BME280;55318;52.068;5.188;2023-02-24T09:04:05;100958.0;;;6.75;84.75
68376;BME280;55318;52.068;5.188;2023-02-24T09:05:42;100950.0;;;6.71;85.17
68376;BME280;55318;52.068;5.188;2023-02-24T09:07:20;100943.0;;;6.82;84.68
68376;BME280;55318;52.068;5.188;2023-02-24T09:10:33;100942.0;;;6.77;84.88
68376;BME280;55318;52.068;5.188;2023-02-24T09:12:12;100936.0;;;6.77;85.02
68376;BME280;55318;52.068;5.188;2023-02-24T09:13:48;100933.0;;;6.79;85.34
68376;BME280;55318;52.068;5.188;2023-02-24T09:17:02;100935.0;;;6.88;85.53
68376;BME280;55318;52.068;5.188;2023-02-24T09:18:40;100931.0;;;6.95;85.53
68376;BME280;55318;52.068;5.188;2023-02-24T09:20:18;100928.0;;;6.96;85.84
68376;BME280;55318;52.068;5.188;2023-02-24T09:21:55;100927.0;;;7.03;85.91
68376;BME280;55318;52.068;5.188;2023-02-24T09:25:10;100920.0;;;7.07;86.04
68376;BME280;55318;52.068;5.188;2023-02-24T09:26:48;100917.0;;;7.17;85.73
68376;BME280;55318;52.068;5.188;2023-02-24T09:28:26;100912.0;;;7.26;85.83
68376;BME280;55318;52.068;5.188;2023-02-24T09:31:40;100898.0;;;7.13;85.94
68376;BME280;55318;52.068;5.188;2023-02-24T09:33:18;100896.0;;;7.06;87.22
68376;BME280;55318;52.068;5.188;2023-02-24T09:34:55;100896.0;;;7.36;86.3
68376;BME280;55318;52.068;5.188;2023-02-24T09:36:31;100887.0;;;7.28;86.55
68376;BME280;55318;52.068;5.188;2023-02-24T09:39:43;100886.0;;;7.3;86.79
68376;BME280;55318;52.068;5.188;2023-02-24T09:41:25;100894.0;;;7.25;87.43
68376;BME280;55318;52.068;5.188;2023-02-24T09:43:03;100899.0;;;7.28;88.01
68376;BME280;55318;52.068;5.188;2023-02-24T09:46:19;100893.0;;;7.28;88.24
68376;BME280;55318;52.068;5.188;2023-02-24T09:47:55;100892.0;;;7.36;87.59
68376;BME280;55318;52.068;5.188;2023-02-24T09:49:41;100885.0;;;7.39;87.92
68376;BME280;55318;52.068;5.188;2023-02-24T09:51:19;100882.0;;;7.49;88.38
68376;BME280;55318;52.068;5.188;2023-02-24T09:54:36;100882.0;;;7.47;88.71
68376;BME280;55318;52.068;5.188;2023-02-24T09:56:18;100878.0;;;7.32;89.08
68376;BME280;55318;52.068;5.188;2023-02-24T09:58:00;100878.0;;;7.34;90.36
68376;BME280;55318;52.068;5.188;2023-02-24T09:59:47;100880.0;;;7.36;90.2
68376;BME280;55318;52.068;5.188;2023-02-24T10:03:17;100880.0;;;7.23;90.4
68376;BME280;55318;52.068;5.188;2023-02-24T10:04:59;100877.0;;;7.18;91.86
68376;BME280;55318;52.068;5.188;2023-02-24T10:06:45;100863.0;;;7.25;92.0
68376;BME280;55318;52.068;5.188;2023-02-24T10:08:30;100856.0;;;7.36;91.88
68376;BME280;55318;52.068;5.188;2023-02-24T10:10:13;100863.0;;;7.3;92.35
68376;BME280;55318;52.068;5.188;2023-02-24T10:13:32;100855.0;;;7.32;92.49
68376;BME280;55318;52.068;5.188;2023-02-24T10:15:12;100867.0;;;7.27;92.84
68376;BME280;55318;52.068;5.188;2023-02-24T10:16:53;100855.0;;;6.96;93.89
68376;BME280;55318;52.068;5.188;2023-02-24T10:18:31;100856.0;;;7.16;94.33
68376;BME280;55318;52.068;5.188;2023-02-24T10:21:57;100855.0;;;6.98;95.22
68376;BME280;55318;52.068;5.188;2023-02-24T10:23:50;100848.0;;;7.06;95.47
68376;BME280;55318;52.068;5.188;2023-02-24T10:25:41;100848.0;;;7.06;95.78
68376;BME280;55318;52.068;5.188;2023-02-24T10:27:23;100852.0;;;7.25;95.47
68376;BME280;55318;52.068;5.188;2023-02-24T10:29:07;100856.0;;;7.21;95.67
68376;BME280;55318;52.068;5.188;2023-02-24T10:30:56;100853.0;;;7.37;95.03
68376;BME280;55318;52.068;5.188;2023-02-24T10:34:24;100849.0;;;7.48;94.64
68376;BME280;55318;52.068;5.188;2023-02-24T10:36:05;100843.0;;;7.11;96.47
68376;BME280;55318;52.068;5.188;2023-02-24T10:37:46;100839.0;;;7.27;95.91
68376;BME280;55318;52.068;5.188;2023-02-24T10:39:23;100835.0;;;7.34;95.77
68376;BME280;55318;52.068;5.188;2023-02-24T10:42:39;100825.0;;;7.29;96.02
68376;BME280;55318;52.068;5.188;2023-02-24T10:44:19;100828.0;;;7.32;96.47
68376;BME280;55318;52.068;5.188;2023-02-24T10:45:59;100828.0;;;7.24;96.54
68376;BME280;55318;52.068;5.188;2023-02-24T10:47:36;100826.0;;;7.34;97.19
68376;BME280;55318;52.068;5.188;2023-02-24T10:50:55;100830.0;;;7.29;97.56
68376;BME280;55318;52.068;5.188;2023-02-24T10:52:33;100831.0;;;7.47;96.95
68376;BME280;55318;52.068;5.188;2023-02-24T10:54:14;100826.0;;;7.51;96.61
68376;BME280;55318;52.068;5.188;2023-02-24T10:55:57;100818.0;;;7.45;97.39
68376;BME280;55318;52.068;5.188;2023-02-24T10:59:18;100813.0;;;7.46;97.5
68376;BME280;55318;52.068;5.188;2023-02-24T11:00:56;100817.0;;;7.45;97.7
68376;BME280;55318;52.068;5.188;2023-02-24T11:02:47;100812.0;;;7.58;97.58
68376;BME280;55318;52.068;5.188;2023-02-24T11:04:32;100812.0;;;7.64;97.59
68376;BME280;55318;52.068;5.188;2023-02-24T11:08:06;100805.0;;;7.65;97.7
68376;BME280;55318;52.068;5.188;2023-02-24T11:10:02;100801.0;;;7.59;97.73
68376;BME280;55318;52.068;5.188;2023-02-24T11:11:49;100798.0;;;7.71;97.9
68376;BME280;55318;52.068;5.188;2023-02-24T11:13:26;100786.0;;;7.72;98.38
68376;BME280;55318;52.068;5.188;2023-02-24T11:15:06;100790.0;;;7.57;98.96
68376;BME280;55318;52.068;5.188;2023-02-24T11:16:52;100789.0;;;7.79;98.68
68376;BME280;55318;52.068;5.188;2023-02-24T11:20:20;100782.0;;;7.8;98.18